createdAt,value
2022-10-23T00:02:35.891Z,6.83
2022-10-23T00:05:41.315Z,7.70
2022-10-23T00:08:46.779Z,7.73
2022-10-23T00:11:51.319Z,8.67
2022-10-23T00:14:54.031Z,7.53
2022-10-23T00:17:59.626Z,7.50
2022-10-23T00:21:02.993Z,9.47
2022-10-23T00:27:12.775Z,10.77
2022-10-23T00:30:15.508Z,9.23
2022-10-23T00:33:30.655Z,9.33
2022-10-23T00:36:33.370Z,8.73
2022-10-23T00:39:37.472Z,8.80
2022-10-23T00:42:40.419Z,11.17
2022-10-23T00:45:43.445Z,9.27
2022-10-23T00:48:46.216Z,14.33
2022-10-23T00:51:52.276Z,8.17
2022-10-23T00:54:57.638Z,9.53
2022-10-23T00:58:00.904Z,8.10
2022-10-23T01:01:19.039Z,8.93
2022-10-23T01:04:22.725Z,9.57
2022-10-23T01:07:30.137Z,10.03
2022-10-23T01:10:41.239Z,9.77
2022-10-23T01:13:53.196Z,8.50
2022-10-23T01:17:06.199Z,8.80
2022-10-23T01:20:23.905Z,7.63
2022-10-23T01:23:44.269Z,9.03
2022-10-23T01:27:15.460Z,7.93
2022-10-23T01:30:19.816Z,8.17
2022-10-23T01:33:28.426Z,8.10
2022-10-23T01:36:33.537Z,9.73
2022-10-23T01:39:39.805Z,9.50
2022-10-23T01:42:47.595Z,8.90
2022-10-23T01:45:55.965Z,9.13
2022-10-23T01:48:59.924Z,7.97
2022-10-23T01:52:04.855Z,8.27
2022-10-23T01:55:11.298Z,8.50
2022-10-23T01:58:16.121Z,11.23
2022-10-23T02:01:24.087Z,8.87
2022-10-23T02:04:31.577Z,8.37
2022-10-23T02:07:34.972Z,8.93
2022-10-23T02:10:45.647Z,8.67
2022-10-23T02:14:01.397Z,8.57
2022-10-23T02:17:16.514Z,8.87
2022-10-23T02:20:25.633Z,7.03
2022-10-23T02:23:33.364Z,8.87
2022-10-23T02:26:39.630Z,8.97
2022-10-23T02:29:45.389Z,11.70
2022-10-23T02:32:51.881Z,9.57
2022-10-23T02:35:54.821Z,10.57
2022-10-23T02:38:57.678Z,9.33
2022-10-23T02:42:08.956Z,7.93
2022-10-23T02:45:18.905Z,7.30
2022-10-23T02:48:27.920Z,8.83
2022-10-23T02:51:39.751Z,8.43
2022-10-23T02:55:08.333Z,8.00
2022-10-23T02:58:20.747Z,7.27
2022-10-23T03:01:28.514Z,7.00
2022-10-23T03:04:33.883Z,6.93
2022-10-23T03:07:37.247Z,8.00
2022-10-23T03:10:40.638Z,6.70
2022-10-23T03:13:43.452Z,6.87
2022-10-23T03:16:46.270Z,8.27
2022-10-23T03:19:50.421Z,7.03
2022-10-23T03:22:53.170Z,7.93
2022-10-23T03:25:56.438Z,6.70
2022-10-23T03:28:59.304Z,7.30
2022-10-23T03:32:07.784Z,8.10
2022-10-23T03:35:12.697Z,7.23
2022-10-23T03:38:15.876Z,7.03
2022-10-23T03:41:18.701Z,7.30
2022-10-23T03:44:21.674Z,9.07
2022-10-23T03:47:24.457Z,7.90
2022-10-23T03:50:28.672Z,7.30
2022-10-23T03:53:31.612Z,7.13
2022-10-23T03:56:34.577Z,6.70
2022-10-23T03:59:37.537Z,7.73
2022-10-23T04:02:40.451Z,9.07
2022-10-23T04:05:44.825Z,7.80
2022-10-23T04:08:47.624Z,8.50
2022-10-23T04:11:50.454Z,9.33
2022-10-23T04:14:53.237Z,8.73
2022-10-23T04:17:56.008Z,8.10
2022-10-23T04:21:00.212Z,7.73
2022-10-23T04:24:03.131Z,8.67
2022-10-23T04:27:05.944Z,8.20
2022-10-23T04:30:10.191Z,8.10
2022-10-23T04:33:13.077Z,8.60
2022-10-23T04:36:17.326Z,8.03
2022-10-23T04:39:20.306Z,9.17
2022-10-23T04:42:23.502Z,8.17
2022-10-23T04:45:26.358Z,8.23
2022-10-23T04:48:29.367Z,8.47
2022-10-23T04:51:33.467Z,11.73
2022-10-23T04:54:38.225Z,11.00
2022-10-23T04:57:41.071Z,12.20
2022-10-23T05:00:44.035Z,10.77
2022-10-23T05:03:46.869Z,11.97
2022-10-23T05:06:50.977Z,12.10
2022-10-23T05:09:53.942Z,10.77
2022-10-23T05:12:56.773Z,12.17
2022-10-23T05:16:00.960Z,10.83
2022-10-23T05:19:04.433Z,12.23
2022-10-23T05:22:09.447Z,10.03
2022-10-23T05:25:13.048Z,10.87
2022-10-23T05:28:15.852Z,11.87
2022-10-23T05:31:19.402Z,11.40
2022-10-23T05:34:26.187Z,9.40
2022-10-23T05:37:32.519Z,10.27
2022-10-23T05:40:35.590Z,9.00
2022-10-23T05:43:38.487Z,9.83
2022-10-23T05:46:42.463Z,11.77
2022-10-23T05:49:45.190Z,10.70
2022-10-23T05:52:50.608Z,9.20
2022-10-23T05:55:53.399Z,10.67
2022-10-23T05:58:59.004Z,9.30
2022-10-23T06:02:02.235Z,10.10
2022-10-23T06:05:05.743Z,10.27
2022-10-23T06:08:09.885Z,9.17
2022-10-23T06:11:14.576Z,9.67
2022-10-23T06:14:17.418Z,9.87
2022-10-23T06:17:20.473Z,10.50
2022-10-23T06:20:26.565Z,9.20
2022-10-23T06:23:33.599Z,9.40
2022-10-23T06:26:36.408Z,8.53
2022-10-23T06:29:39.437Z,8.53
2022-10-23T06:32:42.608Z,9.50
2022-10-23T06:35:46.360Z,10.07
2022-10-23T06:38:52.073Z,10.50
2022-10-23T06:41:54.932Z,10.00
2022-10-23T06:44:59.631Z,9.90
2022-10-23T06:48:04.035Z,9.70
2022-10-23T06:51:09.652Z,9.90
2022-10-23T06:54:16.886Z,11.80
2022-10-23T06:57:20.169Z,12.37
2022-10-23T07:00:23.031Z,12.47
2022-10-23T07:03:25.972Z,13.10
2022-10-23T07:06:28.823Z,15.00
2022-10-23T07:09:33.075Z,13.53
2022-10-23T07:12:35.884Z,12.90
2022-10-23T07:15:39.012Z,14.80
2022-10-23T07:18:41.935Z,14.53
2022-10-23T07:21:44.690Z,14.67
2022-10-23T07:24:48.881Z,12.60
2022-10-23T07:27:51.709Z,16.83
2022-10-23T07:30:59.901Z,17.53
2022-10-23T07:34:03.094Z,13.83
2022-10-23T07:37:05.887Z,13.77
2022-10-23T07:40:11.240Z,12.93
2022-10-23T07:43:14.023Z,12.87
2022-10-23T07:46:16.796Z,11.67
2022-10-23T07:49:19.519Z,16.23
2022-10-23T07:52:22.266Z,18.77
2022-10-23T07:55:26.473Z,13.47
2022-10-23T07:58:29.990Z,16.87
2022-10-23T08:01:34.746Z,12.33
2022-10-23T08:04:37.653Z,11.27
2022-10-23T08:07:40.617Z,12.47
2022-10-23T08:10:44.721Z,11.17
2022-10-23T08:13:47.456Z,11.33
2022-10-23T08:16:50.315Z,10.57
2022-10-23T08:19:53.113Z,10.93
2022-10-23T08:22:56.594Z,11.87
2022-10-23T08:26:02.135Z,10.47
2022-10-23T08:29:07.964Z,11.40
2022-10-23T08:32:10.740Z,11.27
2022-10-23T08:35:13.519Z,11.23
2022-10-23T08:38:16.580Z,11.60
2022-10-23T08:41:27.576Z,12.43
2022-10-23T08:44:34.332Z,10.13
2022-10-23T08:47:41.703Z,10.60
2022-10-23T08:50:50.262Z,10.80
2022-10-23T08:53:59.873Z,9.93
2022-10-23T08:57:10.168Z,9.57
2022-10-23T09:00:15.544Z,9.53
2022-10-23T09:03:19.249Z,7.33
2022-10-23T09:06:32.323Z,6.97
2022-10-23T09:09:52.827Z,8.90
2022-10-23T09:13:03.797Z,7.37
2022-10-23T09:16:18.208Z,7.93
2022-10-23T09:19:26.352Z,7.20
2022-10-23T09:22:30.444Z,9.70
2022-10-23T09:25:38.483Z,7.20
2022-10-23T09:28:47.476Z,8.20
2022-10-23T09:31:51.577Z,6.00
2022-10-23T09:34:56.211Z,7.60
2022-10-23T09:37:59.024Z,6.60
2022-10-23T09:41:07.060Z,5.80
2022-10-23T09:44:20.697Z,5.90
2022-10-23T09:47:26.493Z,5.23
2022-10-23T09:50:29.386Z,8.43
2022-10-23T09:53:35.300Z,6.57
2022-10-23T09:56:42.710Z,5.83
2022-10-23T09:59:52.186Z,5.20
2022-10-23T10:03:00.849Z,4.57
2022-10-23T10:06:05.322Z,5.13
2022-10-23T10:09:12.849Z,7.57
2022-10-23T10:12:27.113Z,4.70
2022-10-23T10:15:38.730Z,5.17
2022-10-23T10:18:47.352Z,8.03
2022-10-23T10:21:58.819Z,5.33
2022-10-23T10:25:08.873Z,4.57
2022-10-23T10:28:28.217Z,4.33
2022-10-23T10:31:46.430Z,5.70
2022-10-23T10:35:01.469Z,7.07
2022-10-23T10:38:29.625Z,4.13
2022-10-23T10:41:46.160Z,4.70
2022-10-23T10:45:01.511Z,6.00
2022-10-23T10:48:33.385Z,5.07
2022-10-23T10:51:44.250Z,5.10
2022-10-23T10:54:57.772Z,4.93
2022-10-23T10:58:04.978Z,5.50
2022-10-23T11:01:16.239Z,6.57
2022-10-23T11:04:31.882Z,7.40
2022-10-23T11:07:40.420Z,6.63
2022-10-23T11:10:46.422Z,5.80
2022-10-23T11:13:53.155Z,8.70
2022-10-23T11:17:00.446Z,8.27
2022-10-23T11:20:10.256Z,7.33
2022-10-23T11:23:33.987Z,7.77
2022-10-23T11:26:48.040Z,8.53
2022-10-23T11:30:17.004Z,7.07
2022-10-23T11:34:01.708Z,5.77
2022-10-23T11:37:06.664Z,6.27
2022-10-23T11:40:23.473Z,5.47
2022-10-23T11:43:31.829Z,6.53
2022-10-23T11:46:36.874Z,5.27
2022-10-23T11:49:39.838Z,4.90
2022-10-23T11:53:12.949Z,7.00
2022-10-23T11:56:26.832Z,4.90
2022-10-23T11:59:31.771Z,5.63
2022-10-23T12:02:38.184Z,4.53
2022-10-23T12:05:44.514Z,4.30
2022-10-23T12:08:53.036Z,7.63
2022-10-23T12:12:33.987Z,3.90
2022-10-23T12:15:36.735Z,7.40
2022-10-23T12:18:52.909Z,7.30
2022-10-23T12:21:58.495Z,3.97
2022-10-23T12:25:05.616Z,6.20
2022-10-23T12:28:20.104Z,6.17
2022-10-23T12:31:34.182Z,3.33
2022-10-23T12:34:46.838Z,5.27
2022-10-23T12:38:14.255Z,5.47
2022-10-23T12:41:26.008Z,4.17
2022-10-23T12:44:30.360Z,4.43
2022-10-23T12:47:40.479Z,8.07
2022-10-23T12:50:50.490Z,6.37
2022-10-23T12:53:53.370Z,4.70
2022-10-23T12:56:57.584Z,4.07
2022-10-23T13:00:04.513Z,6.80
2022-10-23T13:03:07.409Z,4.97
2022-10-23T13:06:12.505Z,5.27
2022-10-23T13:09:23.736Z,4.27
2022-10-23T13:12:30.961Z,5.43
2022-10-23T13:15:41.417Z,4.57
2022-10-23T13:18:44.559Z,3.83
2022-10-23T13:21:49.373Z,5.03
2022-10-23T13:24:53.323Z,4.43
2022-10-23T13:28:21.211Z,3.97
2022-10-23T13:31:27.679Z,7.07
2022-10-23T13:34:37.019Z,5.53
2022-10-23T13:37:39.853Z,4.67
2022-10-23T13:40:44.145Z,6.70
2022-10-23T13:43:49.191Z,4.73
2022-10-23T13:46:53.040Z,4.50
2022-10-23T13:49:55.773Z,4.63
2022-10-23T13:52:59.483Z,3.43
2022-10-23T13:56:02.289Z,4.90
2022-10-23T13:59:06.432Z,3.50
2022-10-23T14:02:19.552Z,4.47
2022-10-23T14:05:22.623Z,3.90
2022-10-23T14:08:25.403Z,6.23
2022-10-23T14:11:28.245Z,3.87
2022-10-23T14:14:32.359Z,3.80
2022-10-23T14:17:35.963Z,3.17
2022-10-23T14:20:39.953Z,3.33
2022-10-23T14:23:42.717Z,7.03
2022-10-23T14:26:45.905Z,5.33
2022-10-23T14:29:50.088Z,5.00
2022-10-23T14:32:53.536Z,3.43
2022-10-23T14:35:56.292Z,3.33
2022-10-23T14:39:00.499Z,5.80
2022-10-23T14:42:03.489Z,3.60
2022-10-23T14:45:09.032Z,4.87
2022-10-23T14:48:11.844Z,6.03
2022-10-23T14:51:19.763Z,6.23
2022-10-23T14:54:22.637Z,3.33
2022-10-23T14:57:25.504Z,3.63
2022-10-23T15:00:29.688Z,5.90
2022-10-23T15:03:41.778Z,4.10
2022-10-23T15:06:46.311Z,7.33
2022-10-23T15:09:50.633Z,7.13
2022-10-23T15:12:53.441Z,4.20
2022-10-23T15:16:05.260Z,4.33
2022-10-23T15:19:09.896Z,4.07
2022-10-23T15:22:16.956Z,4.37
2022-10-23T15:25:21.077Z,4.40
2022-10-23T15:28:27.590Z,4.70
2022-10-23T15:31:56.285Z,5.03
2022-10-23T15:35:01.951Z,5.43
2022-10-23T15:38:11.960Z,5.80
2022-10-23T15:41:22.749Z,5.37
2022-10-23T15:44:28.692Z,4.50
2022-10-23T15:47:32.795Z,7.90
2022-10-23T15:50:36.244Z,4.63
2022-10-23T15:53:41.850Z,8.27
2022-10-23T15:56:44.829Z,5.80
2022-10-23T15:59:57.269Z,4.63
2022-10-23T16:03:01.493Z,6.60
2022-10-23T16:06:05.962Z,6.13
2022-10-23T16:09:08.783Z,4.57
2022-10-23T16:12:11.658Z,4.87
2022-10-23T16:15:14.449Z,5.27
2022-10-23T16:18:19.856Z,5.33
2022-10-23T16:21:25.094Z,5.23
2022-10-23T16:24:27.914Z,6.37
2022-10-23T16:27:30.620Z,6.20
2022-10-23T16:30:33.599Z,6.23
2022-10-23T16:33:37.872Z,6.73
2022-10-23T16:36:41.733Z,6.37
2022-10-23T16:39:57.874Z,4.80
2022-10-23T16:43:00.760Z,6.53
2022-10-23T16:46:06.331Z,6.53
2022-10-23T16:49:10.451Z,7.27
2022-10-23T16:52:14.102Z,6.73
2022-10-23T16:55:16.902Z,6.23
2022-10-23T16:58:19.667Z,7.90
2022-10-23T17:01:24.634Z,5.87
2022-10-23T17:04:28.835Z,6.03
2022-10-23T17:07:32.777Z,8.17
2022-10-23T17:10:35.533Z,9.23
2022-10-23T17:13:40.842Z,11.23
2022-10-23T17:16:46.512Z,10.80
2022-10-23T17:19:50.624Z,12.50
2022-10-23T17:22:53.816Z,14.20
2022-10-23T17:25:57.461Z,12.97
2022-10-23T17:29:02.224Z,12.07
2022-10-23T17:32:05.906Z,11.87
2022-10-23T17:35:10.938Z,12.30
2022-10-23T17:38:17.897Z,13.47
2022-10-23T17:41:23.257Z,12.40
2022-10-23T17:44:26.686Z,11.13
2022-10-23T17:47:29.462Z,9.40
2022-10-23T17:50:33.612Z,11.37
2022-10-23T17:53:38.331Z,10.70
2022-10-23T17:56:41.359Z,9.00
2022-10-23T17:59:44.157Z,8.47
2022-10-23T18:02:46.924Z,9.23
2022-10-23T18:05:51.421Z,8.20
2022-10-23T18:08:55.510Z,8.10
2022-10-23T18:11:58.357Z,8.00
2022-10-23T18:15:01.622Z,7.43
2022-10-23T18:18:07.749Z,8.00
2022-10-23T18:21:12.090Z,14.37
2022-10-23T18:24:14.954Z,8.60
2022-10-23T18:27:17.713Z,7.07
2022-10-23T18:30:20.489Z,7.37
2022-10-23T18:33:23.585Z,7.73
2022-10-23T18:36:30.705Z,6.90
2022-10-23T18:39:33.549Z,7.17
2022-10-23T18:42:36.349Z,7.27
2022-10-23T18:45:43.417Z,7.10
2022-10-23T18:48:46.581Z,7.60
2022-10-23T18:51:50.981Z,7.30
2022-10-23T18:54:53.782Z,6.90
2022-10-23T18:57:57.898Z,7.10
2022-10-23T19:01:00.721Z,6.53
2022-10-23T19:04:04.795Z,6.53
2022-10-23T19:07:08.921Z,7.27
2022-10-23T19:10:15.772Z,7.17
2022-10-23T19:13:18.580Z,7.03
2022-10-23T19:16:25.120Z,7.00
2022-10-23T19:19:31.100Z,6.87
2022-10-23T19:22:37.227Z,6.70
2022-10-23T19:25:48.232Z,6.87
2022-10-23T19:32:01.793Z,7.03
2022-10-23T19:35:04.852Z,8.77
2022-10-23T19:38:09.015Z,7.83
2022-10-23T19:41:11.933Z,7.40
2022-10-23T19:44:15.485Z,7.23
2022-10-23T19:47:18.292Z,7.50
2022-10-23T19:50:21.248Z,7.77
2022-10-23T19:53:25.465Z,7.20
2022-10-23T19:56:28.368Z,9.20
2022-10-23T19:59:31.135Z,6.80
2022-10-23T20:05:46.238Z,6.77
2022-10-23T20:08:50.924Z,7.50
2022-10-23T20:11:53.713Z,7.40
2022-10-23T20:14:56.526Z,7.60
2022-10-23T20:17:59.625Z,7.60
2022-10-23T20:21:03.250Z,7.63
2022-10-23T20:24:08.454Z,8.33
2022-10-23T20:27:13.700Z,8.17
2022-10-23T20:30:16.493Z,7.90
2022-10-23T20:33:19.298Z,8.47
2022-10-23T20:36:25.330Z,7.90
2022-10-23T20:39:29.719Z,8.27
2022-10-23T20:42:32.583Z,7.93
2022-10-23T20:45:35.458Z,7.73
2022-10-23T20:48:39.753Z,8.77
2022-10-23T20:51:43.329Z,8.47
2022-10-23T20:54:47.476Z,8.30
2022-10-23T20:57:50.263Z,8.60
2022-10-23T21:04:02.564Z,10.00
2022-10-23T21:07:09.844Z,9.23
2022-10-23T21:10:14.867Z,8.10
2022-10-23T21:13:17.656Z,9.40
2022-10-23T21:16:24.882Z,9.23
2022-10-23T21:19:30.538Z,9.40
2022-10-23T21:22:33.381Z,8.07
2022-10-23T21:25:40.278Z,8.80
2022-10-23T21:28:55.745Z,9.33
2022-10-23T21:32:08.286Z,8.73
2022-10-23T21:35:11.493Z,8.40
2022-10-23T21:38:14.351Z,9.93
2022-10-23T21:41:21.026Z,7.73
2022-10-23T21:44:30.309Z,8.97
2022-10-23T21:47:35.003Z,10.63
2022-10-23T21:50:37.974Z,9.90
2022-10-23T21:53:40.850Z,10.93
2022-10-23T21:56:46.833Z,14.40
2022-10-23T21:59:51.127Z,12.37
2022-10-23T22:02:53.897Z,14.70
2022-10-23T22:05:59.173Z,12.57
2022-10-23T22:09:02.031Z,9.53
2022-10-23T22:12:06.623Z,9.53
2022-10-23T22:15:10.199Z,11.03
2022-10-23T22:18:12.953Z,11.20
2022-10-23T22:21:17.815Z,11.13
2022-10-23T22:24:21.967Z,9.73
2022-10-23T22:27:26.085Z,9.87
2022-10-23T22:30:28.895Z,9.03
2022-10-23T22:33:32.281Z,9.07
2022-10-23T22:36:37.621Z,12.77
2022-10-23T22:39:40.809Z,9.03
2022-10-23T22:42:45.290Z,9.33
2022-10-23T22:45:48.244Z,10.93
2022-10-23T22:48:51.064Z,10.13
2022-10-23T22:51:54.124Z,10.60
2022-10-23T22:54:56.867Z,10.17
2022-10-23T22:58:01.004Z,10.80
2022-10-23T23:01:08.195Z,10.20
2022-10-23T23:04:36.592Z,11.47
2022-10-23T23:07:35.681Z,9.27
2022-10-23T23:10:38.882Z,9.30
2022-10-23T23:13:43.884Z,11.50
2022-10-23T23:16:46.680Z,9.70
2022-10-23T23:19:49.391Z,8.73
2022-10-23T23:22:52.212Z,9.37
2022-10-23T23:25:55.003Z,8.83
2022-10-23T23:28:59.096Z,8.57
2022-10-23T23:32:01.853Z,8.60
2022-10-23T23:35:04.916Z,8.30
2022-10-23T23:38:09.098Z,8.30
2022-10-23T23:41:14.416Z,8.80
2022-10-23T23:44:18.791Z,10.47
2022-10-23T23:47:21.741Z,10.33
2022-10-23T23:50:43.542Z,9.37
2022-10-23T23:53:46.374Z,8.10
2022-10-23T23:56:49.130Z,8.30
2022-10-23T23:59:53.442Z,8.33
